Cookstown, New Jersey
Current Conditions -  °F | °C
As of 11:18 PM on Wednesday 22 Oct 2014 (Local Time) from KWRI Reporting Station
Heavy Rain Heavy Rain  
Wind Chill: 52°   Ceiling: 1900
Heat Index: 52°   Visibility: 10mi
Dew Point: 50°   Wind: 17mph
Humidity: 94%   Direction: 330°NNW
Pressure: 29.74"   Gusts: 23mph
Location:  40.05°N, 74.56°W
Report Text: KWRI 230318Z AUTO 33015G20KT 10SM +RA SCT011 BKN019 OVC025 11/10 A2974 RMK AO2 CIG 011V019 CIG 010 RWY24
Loading
Personal Weather Stations






























Interactive Weather Map
Tropical Storm Tracking
New forecast layout! Learn more

10-Day Weather Forecast

Advertisements
Track Severe Weather on mobile